Šumavský skimaraton
Location Kvilda Start Time 27.2.2010 11:58:19
Category Závod
Distance 23,86 km Ascend 288,4 m Descend -277,7 m
Total Time 01:07:53 Moving 01:07:53 Stopped 00:00:00
Average Speed 21,1 km/h Fastest Speed 36,9 km/h Slowest Speed 10,3 km/h
Calories 1625 Average HR N/A Max HR N/A
Weather 4 °C Clear
Equipment
Notes bylo horko, slunce, odstartoval jsem prvni, pak mi tam cuknul o 20m Rocarek a Krska a nedokazal jsem je sjet, az na Zhuri jsem jel sam proti tomu vetru, tak jsem si tam trochu zvolnil a nechal se dojet dalsi skupinou (Bobr a jeste 2), pak jsme za to celkem brali, bobra urvali, ale od Horsky Kvildy zacli ty sulini taktizovat a vubec jsme nejeli, bobr nas zas dojel, tak jsem to chvili tah a zkusil to natahnout, ale pak jsem se jim na to vysral a cekal co udelaj. Zacli nastupovat tak kilak pred cilem, byl jsem 3. a hlidal si toho 2., jenze se mu zacala delat dira, tak jsem mu ujel, dojel si toho prvniho, chvili jel za nim a pak mu ujel. takze cajk, v cili 3. za Rocarkem a Krskou. Lada dojel chvili po nas
Splits
Distance (km) Total Time Split Time Split Pace Split Speed Elevation Change (m)
1,00 00:02:55 00:02:55 00:02:55 20,6 33,42
2,00 00:05:25 00:02:30 00:02:30 24,0 -1,18
3,00 00:07:43 00:02:18 00:02:18 26,1 -27,04
4,00 00:10:20 00:02:37 00:02:37 22,9 -8,42
5,00 00:13:28 00:03:08 00:03:08 19,1 18,54
6,00 00:17:58 00:04:30 00:04:30 13,3 69,25
7,00 00:21:48 00:03:50 00:03:50 15,7 27,71
8,00 00:24:20 00:02:32 00:02:32 23,7 -7,71
9,00 00:26:41 00:02:21 00:02:21 25,5 -14,24
10,00 00:29:39 00:02:58 00:02:58 20,2 22,76
11,00 00:31:59 00:02:20 00:02:20 25,7 -24,43
12,00 00:34:19 00:02:20 00:02:20 25,7 -26,44
13,00 00:36:39 00:02:20 00:02:20 25,7 -24,85
14,00 00:40:02 00:03:23 00:03:23 17,7 22,52
15,00 00:42:44 00:02:42 00:02:42 22,2 -3,46
16,00 00:45:36 00:02:52 00:02:52 20,9 -0,30
17,00 00:48:20 00:02:44 00:02:44 22,0 -16,96
18,00 00:52:27 00:04:07 00:04:07 14,6 52,76
19,00 00:54:51 00:02:24 00:02:24 25,0 -37,68
20,00 00:56:54 00:02:03 00:02:03 29,3 -48,20
21,00 01:00:12 00:03:18 00:03:18 18,2 13,24
22,00 01:03:21 00:03:09 00:03:09 19,0 17,49
23,00 01:05:59 00:02:38 00:02:38 22,8 -21,38